This is the latest recevied weather packets stored in our database for station/object OM6ACB-6. If no packets are shown the sender has not sent any weather packets the latest 10 day(s).
| Time | Temp. | Humidity | Pressure | Rain* | Wind** | Luminosity | Snow |
|---|---|---|---|---|---|---|---|
| 1777525840 | 4.44° C | 30% | 1029.3 hPa | 0 mm | - | - | - |
| 1777525240 | 3.33° C | 31% | 1029.1 hPa | 0 mm | - | - | - |
| 1777524640 | 3.33° C | 31% | 1029 hPa | 0 mm | - | - | - |
| 1777524039 | 3.33° C | 31% | 1029.1 hPa | 0 mm | - | - | - |
| 1777523439 | 3.33° C | 31% | 1028.9 hPa | 0 mm | - | - | - |
| 1777522839 | 2.78° C | 31% | 1028.9 hPa | 0 mm | - | - | - |
| 1777522239 | 2.22° C | 31% | 1028.8 hPa | 0 mm | - | - | - |
| 1777521638 | 1.67° C | 32% | 1028.6 hPa | 0 mm | - | - | - |
| 1777521038 | 1.67° C | 32% | 1028.5 hPa | 0 mm | - | - | - |
| 1777520438 | 0° C | 32% | 1028.2 hPa | 0 mm | - | - | - |
| 1777519837 | -0.56° C | 33% | 1028.1 hPa | 0 mm | - | - | - |
| 1777519237 | -1.11° C | 33% | 1027.9 hPa | 0 mm | - | - | - |
| 1777518637 | -0.56° C | 33% | 1027.9 hPa | 0 mm | - | - | - |
| 1777518036 | 0° C | 33% | 1027.9 hPa | 0 mm | - | - | - |
| 1777517436 | 0° C | 33% | 1027.8 hPa | 0 mm | - | - | - |
| 1777516836 | 0° C | 33% | 1027.7 hPa | 0 mm | - | - | - |
| 1777516236 | -0.56° C | 33% | 1027.7 hPa | 0 mm | - | - | - |
| 1777515635 | -0.56° C | 33% | 1027.6 hPa | 0 mm | - | - | - |
| 1777515035 | -1.11° C | 33% | 1027.6 hPa | 0 mm | - | - | - |
| 1777514435 | -0.56° C | 33% | 1027.7 hPa | 0 mm | - | - | - |
| 1777513834 | -1.11° C | 33% | 1027.7 hPa | 0 mm | - | - | - |
| 1777513234 | -1.11° C | 33% | 1027.6 hPa | 0 mm | - | - | - |
| 1777512634 | -1.11° C | 33% | 1027.5 hPa | 0 mm | - | - | - |
| 1777512034 | -1.11° C | 33% | 1027.5 hPa | 0 mm | - | - | - |
| 1777511433 | 0.56° C | 32% | 1027.6 hPa | 0 mm | - | - | - |
* Rain latest hour (hover to see other rain measurements)
** Current wind speed in m/s (hover to see current wind gust speed)